Terminal Aerodrome Forecast
Issued by NWS Wichita, KS

Home | Current Version | Previous Version | Text Only | Print | Product List | Glossary Off
Versions: 1 2 3 4 5 6 7 8 9 10 11 12

627
FTUS43 KICT 201128
TAFICT
TAF
KICT 201128Z 2012/2112 19012KT P6SM FEW250
     FM201430 19018G25KT P6SM FEW250
     FM202300 18012G20KT P6SM FEW250
     FM210400 20011KT P6SM FEW250=

USA.gov is the U.S. government's official web portal to all federal, state and local government web resources and services.